Time;durP1;ratioP1;P1;durP2;ratioP2;P2;SDS_P1;SDS_P2;PMS_P1;PMS_P2;Temp;Humidity;BMP_temperature;BMP_pressure;BME280_temperature;BME280_humidity;BME280_pressure;Samples;Min_cycle;Max_cycle;Signal;HPM_P1;HPM_P2
2023/10/31 00:20:51;;;;;;;27.80;20.53;;;10.70;99.90;;;;;;4694345;30;20296;-67
2023/10/31 00:24:31;;;;;;;31.07;19.00;;;10.70;99.90;;;;;;4722378;30;20319;-68
2023/10/31 00:27:28;;;;;;;27.03;19.53;;;10.70;99.90;;;;;;4711929;30;20713;-67
2023/10/31 00:30:22;;;;;;;32.27;18.90;;;10.70;99.90;;;;;;4711921;30;20279;-67
2023/10/31 00:33:05;;;;;;;26.00;19.40;;;10.80;99.90;;;;;;4714889;30;20217;-66
2023/10/31 00:36:09;;;;;;;32.63;20.60;;;10.90;99.90;;;;;;4713925;30;20232;-67
2023/10/31 00:38:46;;;;;;;28.53;18.27;;;10.80;99.90;;;;;;4714731;30;20224;-67
2023/10/31 00:44:47;;;;;;;24.67;16.17;;;10.90;99.90;;;;;;4696794;30;20247;-67
2023/10/31 00:47:40;;;;;;;22.37;15.47;;;10.90;99.90;;;;;;4711670;30;20229;-67
2023/10/31 00:50:46;;;;;;;28.53;17.07;;;10.90;99.90;;;;;;4728421;30;20325;-67
2023/10/31 00:54:07;;;;;;;27.53;18.20;;;10.80;99.90;;;;;;4695239;30;20803;-67
2023/10/31 00:57:19;;;;;;;33.10;18.90;;;10.80;99.90;;;;;;4740510;30;20215;-67
2023/10/31 01:00:07;;;;;;;24.77;17.90;;;10.70;99.90;;;;;;4781891;29;20226;-67
2023/10/31 01:06:09;;;;;;;32.93;20.50;;;10.80;99.90;;;;;;4781912;30;20218;-67
2023/10/31 01:15:37;;;;;;;33.00;20.13;;;10.80;99.90;;;;;;4766489;30;20342;-67
2023/10/31 01:18:08;;;;;;;30.37;18.77;;;10.80;99.90;;;;;;4758843;30;20215;-67
2023/10/31 01:20:36;;;;;;;29.80;18.83;;;10.90;99.90;;;;;;4792527;29;20213;-66
2023/10/31 01:23:05;;;;;;;27.60;19.53;;;10.90;99.90;;;;;;4800408;29;20238;-66
2023/10/31 01:26:17;;;;;;;28.83;19.77;;;10.90;99.90;;;;;;4800274;29;20234;-66
2023/10/31 01:34:51;;;;;;;25.40;17.77;;;11.00;99.90;;;;;;4781460;30;20282;-67
2023/10/31 01:37:24;;;;;;;31.27;18.83;;;11.00;99.90;;;;;;4781890;30;20251;-67
2023/10/31 01:40:03;;;;;;;29.87;18.93;;;11.00;99.90;;;;;;4781736;30;20218;-67
2023/10/31 01:42:41;;;;;;;30.63;20.03;;;11.00;99.90;;;;;;4781773;30;20211;-68
2023/10/31 01:45:10;;;;;;;31.00;19.13;;;11.00;99.90;;;;;;4781430;30;20270;-67
2023/10/31 01:47:53;;;;;;;29.17;19.40;;;11.10;99.90;;;;;;4781696;29;20295;-67
2023/10/31 01:50:27;;;;;;;32.07;20.50;;;11.00;99.90;;;;;;4784857;30;20569;-67
2023/10/31 01:53:05;;;;;;;28.30;20.50;;;11.00;99.90;;;;;;4784002;30;20231;-67
2023/10/31 01:56:06;;;;;;;31.13;19.77;;;11.00;99.90;;;;;;4783222;29;20307;-67
2023/10/31 01:58:52;;;;;;;30.43;19.40;;;11.00;99.90;;;;;;4786849;29;20322;-67
2023/10/31 02:01:24;;;;;;;27.80;20.57;;;11.00;99.90;;;;;;4802895;29;20214;-67
2023/10/31 02:04:22;;;;;;;33.00;21.60;;;10.90;99.90;;;;;;4802829;29;20251;-67
2023/10/31 02:10:37;;;;;;;34.20;21.87;;;10.80;99.90;;;;;;4752073;30;20223;-67
2023/10/31 02:13:18;;;;;;;36.47;21.70;;;10.80;99.90;;;;;;4767055;30;20269;-66
2023/10/31 02:16:03;;;;;;;36.17;23.30;;;10.90;99.90;;;;;;4766716;30;20219;-67
2023/10/31 02:19:02;;;;;;;37.77;23.77;;;10.90;99.90;;;;;;4766809;30;20268;-67
2023/10/31 02:22:05;;;;;;;32.73;21.80;;;10.90;99.90;;;;;;4766204;30;20233;-67
2023/10/31 02:28:59;;;;;;;35.77;20.67;;;10.90;99.90;;;;;;4732517;30;20295;-67
2023/10/31 02:32:25;;;;;;;38.13;21.00;;;11.00;99.90;;;;;;4731155;30;20212;-68
2023/10/31 02:35:46;;;;;;;32.70;21.67;;;11.00;99.90;;;;;;4713259;30;20588;-67
2023/10/31 02:38:16;;;;;;;35.97;21.63;;;11.00;99.90;;;;;;4713619;30;20218;-67
2023/10/31 02:43:43;;;;;;;35.90;23.07;;;11.00;99.90;;;;;;4684088;30;20735;-67
2023/10/31 02:46:54;;;;;;;41.93;20.80;;;11.10;99.90;;;;;;4713599;30;20229;-67
2023/10/31 02:49:22;;;;;;;34.80;21.50;;;11.10;99.90;;;;;;4730967;30;20757;-67
2023/10/31 02:55:32;;;;;;;40.27;23.23;;;11.10;99.90;;;;;;4748193;30;20633;-67
2023/10/31 03:02:22;;;;;;;38.57;22.50;;;11.20;99.90;;;;;;4727054;30;20224;-67
2023/10/31 03:05:34;;;;;;;41.23;21.07;;;11.20;99.90;;;;;;4754715;30;20254;-67
2023/10/31 03:08:26;;;;;;;38.80;21.47;;;11.20;99.90;;;;;;4768816;29;20593;-67
2023/10/31 03:11:24;;;;;;;33.10;22.73;;;11.30;99.90;;;;;;4788208;29;20231;-67
2023/10/31 03:14:14;;;;;;;40.33;23.10;;;11.20;99.90;;;;;;4825707;29;20221;-67
2023/10/31 03:16:53;;;;;;;36.23;22.50;;;11.20;99.90;;;;;;4857427;29;20677;-67
2023/10/31 03:20:02;;;;;;;32.83;23.43;;;11.30;99.90;;;;;;4874801;29;21187;-67
2023/10/31 03:22:39;;;;;;;37.00;23.47;;;11.20;99.90;;;;;;4875000;29;20199;-67
2023/10/31 03:25:54;;;;;;;;;;;;;;;;;;;;;
2023/10/31 03:28:59;;;;;;;36.30;25.13;;;11.20;99.90;;;;;;4933918;29;20212;-67
2023/10/31 03:32:25;;;;;;;39.87;26.90;;;11.20;99.90;;;;;;4932777;29;20296;-67
2023/10/31 03:42:52;;;;;;;32.57;23.20;;;11.30;99.90;;;;;;4855772;29;20215;-67
2023/10/31 03:45:31;;;;;;;30.03;22.70;;;11.30;99.90;;;;;;4853760;29;20243;-67
2023/10/31 03:51:36;;;;;;;31.23;21.37;;;11.40;99.90;;;;;;4800638;29;20246;-67
2023/10/31 03:58:55;;;;;;;32.57;20.30;;;11.30;99.90;;;;;;4800986;29;20297;-66
2023/10/31 04:02:05;;;;;;;34.83;21.17;;;11.30;99.90;;;;;;4800516;29;20323;-67
2023/10/31 04:04:59;;;;;;;37.83;23.07;;;11.30;99.90;;;;;;4784988;29;20247;-67
2023/10/31 04:08:15;;;;;;;29.57;22.57;;;11.30;99.90;;;;;;4892731;29;20211;-68
2023/10/31 04:13:52;;;;;;;33.63;23.50;;;11.30;99.90;;;;;;4853958;29;20229;-68
2023/10/31 04:20:11;;;;;;;33.03;22.53;;;11.40;99.90;;;;;;4872553;29;20274;-67
2023/10/31 04:22:40;;;;;;;41.53;25.60;;;11.40;99.90;;;;;;4892281;29;20211;-67
2023/10/31 04:25:24;;;;;;;33.53;23.07;;;11.40;99.90;;;;;;4892748;29;20235;-67
2023/10/31 04:28:02;;;;;;;30.80;21.43;;;11.40;99.90;;;;;;4913509;29;20553;-67
2023/10/31 04:30:44;;;;;;;28.63;21.17;;;11.40;99.90;;;;;;4949323;29;20219;-66
2023/10/31 04:34:02;;;;;;;30.40;21.00;;;11.40;99.90;;;;;;4949581;29;20207;-67
2023/10/31 04:37:13;;;;;;;35.23;21.03;;;11.40;99.90;;;;;;4932989;28;20303;-67
2023/10/31 04:39:57;;;;;;;37.30;21.23;;;11.40;99.90;;;;;;4918133;29;20228;-67
2023/10/31 04:42:34;;;;;;;27.40;20.47;;;11.50;99.90;;;;;;4948594;29;20214;-67
2023/10/31 04:45:07;;;;;;;30.10;20.27;;;11.50;99.90;;;;;;4914017;29;20803;-67
2023/10/31 04:47:39;;;;;;;31.97;22.07;;;11.50;99.90;;;;;;4930299;29;20206;-67
2023/10/31 04:50:29;;;;;;;30.77;20.97;;;11.60;99.90;;;;;;4929880;29;20218;-67
2023/10/31 04:53:13;;;;;;;26.07;19.67;;;11.50;99.90;;;;;;4895384;29;20295;-66
2023/10/31 04:55:46;;;;;;;26.70;20.43;;;11.50;99.90;;;;;;4933258;28;20211;-66
2023/10/31 04:59:14;;;;;;;28.23;19.87;;;11.50;99.90;;;;;;4990059;28;20232;-67
2023/10/31 05:01:50;;;;;;;30.03;19.80;;;11.60;99.90;;;;;;4989849;28;20297;-66
2023/10/31 05:07:39;;;;;;;28.53;21.23;;;11.60;99.90;;;;;;4992104;28;20218;-67
2023/10/31 05:10:13;;;;;;;27.07;21.67;;;11.50;99.90;;;;;;5010086;28;20224;-67
2023/10/31 05:13:10;;;;;;;30.97;20.97;;;11.50;99.90;;;;;;4967258;28;20196;-67
2023/10/31 05:15:41;;;;;;;31.73;21.93;;;11.50;99.90;;;;;;4966439;28;20208;-67
2023/10/31 05:18:26;;;;;;;28.80;22.27;;;11.60;99.90;;;;;;4952089;28;20679;-68
2023/10/31 05:21:32;;;;;;;31.77;22.73;;;11.60;99.90;;;;;;4986731;28;20265;-67
2023/10/31 05:24:32;;;;;;;29.27;23.03;;;11.60;99.90;;;;;;4989112;28;20248;-67
2023/10/31 05:27:12;;;;;;;36.57;22.97;;;11.60;99.90;;;;;;4991683;28;20751;-67
2023/10/31 05:30:18;;;;;;;33.60;19.67;;;11.60;99.90;;;;;;4991664;28;20569;-67
2023/10/31 05:33:47;;;;;;;40.17;22.87;;;11.60;99.90;;;;;;4991295;28;20729;-67
2023/10/31 05:37:05;;;;;;;32.50;22.10;;;11.60;99.90;;;;;;4991810;28;20696;-68
2023/10/31 05:42:32;;;;;;;30.00;21.03;;;11.70;99.90;;;;;;4857803;29;20223;-66
2023/10/31 05:45:06;;;;;;;32.87;22.33;;;11.70;99.90;;;;;;4858014;29;20212;-67
2023/10/31 05:48:10;;;;;;;30.40;23.57;;;11.80;99.90;;;;;;4821116;29;20199;-67
2023/10/31 05:51:02;;;;;;;37.50;24.53;;;11.70;99.90;;;;;;4833647;29;20542;-67
2023/10/31 05:53:50;;;;;;;37.37;26.57;;;11.70;99.90;;;;;;4839392;29;20311;-67
2023/10/31 05:56:42;;;;;;;34.03;26.03;;;11.80;99.90;;;;;;4839219;29;20201;-67
2023/10/31 05:59:37;;;;;;;48.13;35.83;;;11.80;99.90;;;;;;4913989;29;20213;-68
2023/10/31 06:05:49;;;;;;;56.20;41.50;;;11.90;99.90;;;;;;4910680;29;20359;-67
2023/10/31 06:08:27;;;;;;;59.30;42.20;;;11.90;99.90;;;;;;4898032;29;20210;-67
2023/10/31 06:22:47;;;;;;;35.77;24.57;;;12.00;99.90;;;;;;4820595;29;20599;-67
2023/10/31 06:25:36;;;;;;;34.57;25.63;;;11.90;99.90;;;;;;4776820;30;20243;-67
2023/10/31 06:32:01;;;;;;;36.77;28.63;;;12.00;99.90;;;;;;4783103;30;20223;-67
2023/10/31 06:34:41;;;;;;;39.57;28.03;;;12.10;99.90;;;;;;4748174;30;20680;-67
2023/10/31 06:37:51;;;;;;;47.47;29.63;;;12.10;99.90;;;;;;4748684;30;20259;-67
2023/10/31 06:40:19;;;;;;;41.07;28.40;;;12.10;99.90;;;;;;4748760;30;20303;-67
2023/10/31 06:43:16;;;;;;;35.47;26.20;;;12.20;99.90;;;;;;4748761;30;20212;-66
2023/10/31 06:49:36;;;;;;;53.50;37.67;;;12.20;99.90;;;;;;4725354;30;20240;-67
2023/10/31 06:52:07;;;;;;;42.83;32.23;;;12.20;99.90;;;;;;4773210;29;20206;-67
2023/10/31 06:54:49;;;;;;;37.37;26.07;;;12.20;99.90;;;;;;4820156;29;20210;-67
2023/10/31 06:57:47;;;;;;;34.53;24.93;;;12.30;99.90;;;;;;4792862;29;20213;-67
2023/10/31 07:07:25;;;;;;;41.43;30.00;;;12.20;99.90;;;;;;4712160;30;20248;-67
2023/10/31 07:13:09;;;;;;;37.53;28.07;;;12.40;99.90;;;;;;4738184;30;20217;-66
2023/10/31 07:16:24;;;;;;;39.07;26.53;;;12.40;99.90;;;;;;4748078;30;20783;-67
2023/10/31 07:18:56;;;;;;;47.17;33.53;;;12.40;99.90;;;;;;4726889;30;20220;-67
2023/10/31 07:21:53;;;;;;;40.43;29.27;;;12.60;99.90;;;;;;4747632;30;20211;-67
2023/10/31 07:26:20;;;;;;;39.23;29.60;;;12.60;99.90;;;;;;4764807;30;20217;-67
2023/10/31 07:28:55;;;;;;;44.00;29.90;;;12.60;99.90;;;;;;4765573;30;20224;-67
2023/10/31 07:35:32;;;;;;;51.03;31.83;;;12.70;99.90;;;;;;4765114;30;20220;-67
2023/10/31 07:38:03;;;;;;;44.03;31.83;;;12.80;99.90;;;;;;4765420;29;20746;-66
2023/10/31 07:40:33;;;;;;;41.17;30.17;;;12.80;99.90;;;;;;4781943;29;20219;-67
2023/10/31 07:43:01;;;;;;;50.13;30.73;;;12.80;99.90;;;;;;4828901;29;20234;-66
2023/10/31 07:45:39;;;;;;;44.20;29.23;;;12.90;99.90;;;;;;4865533;29;20309;-66
2023/10/31 07:48:28;;;;;;;48.00;30.63;;;12.90;99.90;;;;;;4861882;29;20208;-66
2023/10/31 07:50:57;;;;;;;40.43;27.73;;;13.00;99.90;;;;;;4949965;29;20208;-66
2023/10/31 07:53:28;;;;;;;68.60;45.77;;;13.00;99.90;;;;;;4950567;29;20221;-66
2023/10/31 07:56:25;;;;;;;;;;;;;;;;;;;;;
2023/10/31 07:58:57;;;;;;;86.93;58.17;;;13.20;99.90;;;;;;4949113;29;20217;-65
2023/10/31 08:01:47;;;;;;;100.40;62.50;;;13.20;99.90;;;;;;4950148;29;20213;-65
2023/10/31 08:04:47;;;;;;;85.50;53.47;;;13.30;99.90;;;;;;4950173;29;20327;-65
2023/10/31 08:07:47;;;;;;;46.33;31.83;;;13.30;99.90;;;;;;4973732;28;20223;-65
2023/10/31 08:10:42;;;;;;;55.67;39.93;;;13.30;99.90;;;;;;4991625;28;20237;-65
2023/10/31 08:13:40;;;;;;;75.07;52.37;;;13.30;99.90;;;;;;4990767;28;20714;-65
2023/10/31 08:19:29;;;;;;;50.73;36.70;;;13.30;99.90;;;;;;4982162;28;20213;-65
2023/10/31 08:22:13;;;;;;;54.47;38.83;;;13.30;99.90;;;;;;4933639;29;20197;-65
2023/10/31 08:25:04;;;;;;;78.83;52.10;;;13.30;99.90;;;;;;4952235;28;20204;-65
2023/10/31 08:27:37;;;;;;;70.00;44.57;;;13.40;99.90;;;;;;4968719;28;20745;-65
2023/10/31 08:30:24;;;;;;;59.33;39.43;;;13.40;99.90;;;;;;4968855;28;20259;-65
2023/10/31 08:37:00;;;;;;;44.13;34.23;;;13.50;99.90;;;;;;4930670;28;20283;-66
2023/10/31 08:40:35;;;;;;;39.27;29.53;;;13.50;99.90;;;;;;4980466;28;20222;-66
2023/10/31 08:43:29;;;;;;;40.17;28.97;;;13.50;99.90;;;;;;4911084;29;20258;-65
2023/10/31 08:46:40;;;;;;;;;;;;;;;;;;;;;
2023/10/31 08:49:26;;;;;;;37.73;28.13;;;13.40;99.90;;;;;;4845313;29;20223;-66
2023/10/31 08:51:56;;;;;;;41.43;29.47;;;13.40;99.90;;;;;;4911766;29;20218;-66
2023/10/31 08:54:25;;;;;;;42.73;28.87;;;13.40;99.90;;;;;;4911143;29;20694;-67
2023/10/31 08:56:53;;;;;;;42.13;28.30;;;13.40;99.90;;;;;;4911067;29;20210;-67
2023/10/31 08:59:46;;;;;;;41.47;28.37;;;13.30;99.90;;;;;;4908427;29;20212;-67
2023/10/31 09:06:26;;;;;;;35.77;25.97;;;13.40;99.90;;;;;;4834640;29;20696;-68
2023/10/31 09:09:13;;;;;;;34.50;26.77;;;13.50;99.90;;;;;;4855381;29;20283;-67
2023/10/31 09:12:26;;;;;;;36.30;26.70;;;13.50;99.90;;;;;;4800185;29;20690;-67
2023/10/31 09:15:22;;;;;;;35.50;24.93;;;13.70;99.90;;;;;;4815372;29;20221;-67
2023/10/31 09:18:35;;;;;;;39.03;28.37;;;13.70;99.90;;;;;;4818181;29;20237;-67
2023/10/31 09:21:51;;;;;;;33.40;26.10;;;13.80;99.90;;;;;;4817758;29;20218;-67
2023/10/31 09:24:21;;;;;;;40.03;28.60;;;13.80;99.90;;;;;;4763332;30;20318;-67
2023/10/31 09:26:50;;;;;;;37.27;26.77;;;13.80;99.90;;;;;;4764132;30;20660;-67
2023/10/31 09:29:59;;;;;;;29.00;21.27;;;13.90;99.90;;;;;;4765612;30;20270;-68
2023/10/31 09:32:28;;;;;;;30.93;21.07;;;13.80;99.90;;;;;;4781615;29;20212;-67
2023/10/31 09:34:56;;;;;;;33.03;23.30;;;13.90;99.90;;;;;;4781977;30;20215;-68
2023/10/31 09:37:48;;;;;;;23.90;20.13;;;14.00;99.90;;;;;;4782030;30;20328;-68
2023/10/31 09:40:42;;;;;;;22.70;17.33;;;14.00;99.90;;;;;;4781819;30;20788;-68
2023/10/31 09:43:17;;;;;;;26.87;18.67;;;13.90;99.90;;;;;;4830919;29;20311;-67
2023/10/31 09:46:10;;;;;;;17.20;15.40;;;13.90;99.90;;;;;;4852498;29;20247;-67
2023/10/31 09:49:17;;;;;;;20.27;16.47;;;13.80;99.90;;;;;;4836055;29;20207;-67
2023/10/31 09:55:55;;;;;;;;;;;;;;;;;;;;;
2023/10/31 09:58:28;;;;;;;17.10;14.80;;;13.80;99.90;;;;;;4839568;29;20578;-67
2023/10/31 10:01:22;;;;;;;16.13;13.67;;;13.90;99.90;;;;;;4854480;29;20657;-67
2023/10/31 10:04:02;;;;;;;14.83;13.23;;;13.80;99.90;;;;;;4854219;29;20246;-67
2023/10/31 10:07:16;;;;;;;17.07;13.77;;;13.80;99.90;;;;;;4835885;29;20209;-67
2023/10/31 10:21:17;;;;;;;15.50;12.67;;;14.00;99.90;;;;;;4781292;29;20592;-67
2023/10/31 10:24:18;;;;;;;16.57;12.83;;;14.00;99.90;;;;;;4784821;30;20224;-67
2023/10/31 10:26:54;;;;;;;12.83;11.53;;;14.10;99.90;;;;;;4798604;29;20221;-67
2023/10/31 10:29:26;;;;;;;13.37;12.07;;;14.10;99.90;;;;;;4802858;29;20623;-67
2023/10/31 10:36:17;;;;;;;10.70;9.57;;;14.20;99.90;;;;;;4845210;29;20380;-67
2023/10/31 10:38:58;;;;;;;16.10;11.97;;;14.30;99.90;;;;;;4905967;29;20201;-68
2023/10/31 10:41:37;;;;;;;22.23;15.03;;;14.20;99.90;;;;;;4913328;29;20208;-68
2023/10/31 10:44:13;;;;;;;13.20;10.30;;;14.30;99.90;;;;;;4912995;29;20203;-68
2023/10/31 10:47:01;;;;;;;12.13;9.27;;;14.30;99.90;;;;;;4913666;29;20217;-68
2023/10/31 10:49:58;;;;;;;11.47;10.27;;;14.30;99.90;;;;;;4913066;29;20683;-67
2023/10/31 10:53:06;;;;;;;11.07;9.90;;;14.30;99.90;;;;;;4838795;29;21000;-67
2023/10/31 10:55:46;;;;;;;10.70;8.83;;;14.30;99.90;;;;;;4819885;29;20217;-67
2023/10/31 10:58:32;;;;;;;9.40;8.40;;;14.40;99.90;;;;;;4820322;29;20220;-67
2023/10/31 11:01:00;;;;;;;11.03;8.37;;;14.30;99.90;;;;;;4820508;29;20219;-67
2023/10/31 11:04:36;;;;;;;14.67;10.83;;;14.30;99.90;;;;;;4820348;29;20314;-67
2023/10/31 11:07:34;;;;;;;8.43;7.63;;;14.40;99.90;;;;;;4820001;29;20246;-68
2023/10/31 11:10:04;;;;;;;9.73;8.73;;;14.50;99.90;;;;;;4820095;29;20297;-68
2023/10/31 11:36:45;;;;;;;5.90;5.40;;;15.00;99.90;;;;;;4908128;29;21018;-67
2023/10/31 11:39:14;;;;;;;6.10;5.47;;;14.80;99.90;;;;;;4908680;29;20216;-67
2023/10/31 11:41:49;;;;;;;5.70;5.20;;;14.70;99.90;;;;;;4909060;29;20207;-67
2023/10/31 11:44:19;;;;;;;7.47;5.10;;;14.60;99.90;;;;;;4908657;29;20219;-67
2023/10/31 11:51:35;;;;;;;6.60;5.00;;;14.50;99.90;;;;;;4854356;29;20355;-67
2023/10/31 11:54:23;;;;;;;4.77;4.37;;;14.40;99.90;;;;;;4900164;29;20287;-67
2023/10/31 12:02:12;;;;;;;;;;;;;;;;;;;;;
2023/10/31 12:12:56;;;;;;;4.30;3.90;;;14.30;99.90;;;;;;4756447;29;20224;-69
2023/10/31 12:16:07;;;;;;;4.03;3.63;;;14.20;99.90;;;;;;4800118;29;20221;-70
2023/10/31 12:19:20;;;;;;;4.93;3.80;;;14.20;99.90;;;;;;4815280;29;20212;-68
2023/10/31 12:34:11;;;;;;;4.50;4.03;;;14.10;99.90;;;;;;4847944;29;20317;-66
2023/10/31 12:36:56;;;;;;;4.70;3.83;;;14.10;99.90;;;;;;4971407;28;20213;-67
2023/10/31 12:39:36;;;;;;;3.60;3.30;;;14.20;99.90;;;;;;4960231;28;20226;-66
2023/10/31 12:42:45;;;;;;;4.53;4.10;;;14.10;99.90;;;;;;4978475;28;20305;-67
2023/10/31 12:45:55;;;;;;;3.30;3.00;;;14.20;99.90;;;;;;4990793;28;20216;-68
2023/10/31 12:49:03;;;;;;;37.37;28.50;;;14.10;99.90;;;;;;4990787;28;20214;-68
2023/10/31 12:56:57;;;;;;;5.50;3.63;;;14.00;99.90;;;;;;4929627;29;20219;-67
2023/10/31 13:00:02;;;;;;;3.97;3.67;;;13.90;99.90;;;;;;4896939;29;20221;-68
2023/10/31 13:06:21;;;;;;;4.40;4.10;;;13.70;99.90;;;;;;4926445;29;20222;-66
2023/10/31 13:18:04;;;;;;;5.67;5.17;;;13.80;99.90;;;;;;4782880;30;20247;-68
2023/10/31 13:27:35;;;;;;;6.07;5.50;;;13.90;99.90;;;;;;4750566;29;20736;-69
2023/10/31 13:30:04;;;;;;;6.50;5.27;;;13.90;99.90;;;;;;4784095;29;20350;-68
2023/10/31 13:51:09;;;;;;;7.30;6.60;;;14.00;99.90;;;;;;4801552;29;20299;-68
2023/10/31 13:53:41;;;;;;;7.30;6.60;;;14.00;99.90;;;;;;4801757;29;20210;-68
2023/10/31 14:03:47;;;;;;;7.23;6.53;;;14.00;99.90;;;;;;4752109;30;20261;-68
2023/10/31 14:06:52;;;;;;;6.50;5.80;;;13.90;99.90;;;;;;4747818;30;20210;-67
2023/10/31 14:36:35;;;;;;;6.03;4.87;;;13.70;99.90;;;;;;4685694;30;20228;-67
2023/10/31 14:39:04;;;;;;;5.00;4.50;;;13.70;99.90;;;;;;4678093;30;20224;-66
2023/10/31 14:52:27;;;;;;;5.53;4.80;;;13.70;99.90;;;;;;4671386;30;20242;-66
2023/10/31 14:54:56;;;;;;;5.60;5.00;;;13.70;99.90;;;;;;4643438;30;20710;-68
2023/10/31 15:01:17;;;;;;;5.67;3.93;;;13.70;99.90;;;;;;4726826;30;20329;-67
2023/10/31 15:07:03;;;;;;;10.17;8.77;;;13.70;99.90;;;;;;4766670;29;20229;-69
2023/10/31 15:09:33;;;;;;;15.93;12.07;;;13.70;99.90;;;;;;4889802;29;20211;-71
2023/10/31 15:12:01;;;;;;;10.00;7.00;;;13.70;99.90;;;;;;4911389;29;20206;-69
2023/10/31 15:14:29;;;;;;;16.93;12.93;;;13.80;99.90;;;;;;4914186;29;20200;-63
2023/10/31 15:16:58;;;;;;;6.00;4.90;;;13.70;99.90;;;;;;4930464;29;20262;-70
2023/10/31 15:19:26;;;;;;;5.93;4.67;;;13.70;99.90;;;;;;4929653;29;20671;-65
2023/10/31 15:21:54;;;;;;;25.30;19.50;;;13.70;99.90;;;;;;4929154;29;20209;-68
2023/10/31 15:24:23;;;;;;;7.20;5.23;;;13.70;99.90;;;;;;4967517;28;20796;-65
2023/10/31 15:26:52;;;;;;;8.03;5.10;;;13.70;99.90;;;;;;4967608;28;20324;-73
2023/10/31 15:29:21;;;;;;;5.83;4.53;;;13.70;99.90;;;;;;4967590;28;20198;-69
2023/10/31 15:31:53;;;;;;;6.40;4.53;;;13.70;99.90;;;;;;4967464;28;20228;-69
2023/10/31 15:34:22;;;;;;;7.37;5.37;;;13.60;99.90;;;;;;4968385;28;20554;-70
2023/10/31 15:36:50;;;;;;;6.53;4.77;;;13.60;99.90;;;;;;4967481;28;20208;-69
2023/10/31 15:39:19;;;;;;;5.37;4.33;;;13.70;99.90;;;;;;4967382;28;20192;-68
2023/10/31 15:41:47;;;;;;;4.40;4.10;;;13.70;99.90;;;;;;4967246;28;20228;-71
2023/10/31 15:44:17;;;;;;;4.83;4.40;;;13.70;99.90;;;;;;4967495;28;20896;-64
2023/10/31 15:46:45;;;;;;;44.13;27.93;;;13.80;99.90;;;;;;4967426;28;20216;-64
2023/10/31 15:49:13;;;;;;;4.83;4.43;;;13.80;99.90;;;;;;4967552;28;20210;-69
2023/10/31 15:51:42;;;;;;;3.77;3.47;;;13.80;99.90;;;;;;4967182;28;20210;-67
2023/10/31 15:54:10;;;;;;;3.87;3.57;;;13.70;99.90;;;;;;4967544;28;20204;-71
2023/10/31 15:56:39;;;;;;;3.03;2.83;;;13.70;99.90;;;;;;4967353;28;20743;-68
2023/10/31 15:59:07;;;;;;;3.53;3.23;;;13.50;99.90;;;;;;4967407;28;20630;-69
2023/10/31 16:01:37;;;;;;;3.60;3.40;;;13.30;99.90;;;;;;4967024;28;20200;-71
2023/10/31 16:04:05;;;;;;;3.83;3.53;;;13.30;99.90;;;;;;4967312;28;20228;-69
2023/10/31 16:06:34;;;;;;;4.63;3.80;;;13.30;99.90;;;;;;4967199;28;20298;-69
2023/10/31 16:09:02;;;;;;;4.50;4.10;;;13.30;99.90;;;;;;4960767;28;20212;-69
2023/10/31 16:11:32;;;;;;;5.50;5.00;;;13.20;99.90;;;;;;4952149;28;20201;-64
2023/10/31 16:14:00;;;;;;;5.93;5.43;;;13.00;99.90;;;;;;4952263;29;20205;-67
2023/10/31 16:16:29;;;;;;;5.97;5.37;;;12.80;99.90;;;;;;4936162;29;20212;-60
2023/10/31 16:18:59;;;;;;;5.63;5.13;;;12.80;99.90;;;;;;4952217;29;20818;-66
2023/10/31 16:21:27;;;;;;;5.27;4.50;;;12.90;99.90;;;;;;4951548;28;20209;-65
2023/10/31 16:23:57;;;;;;;5.93;4.87;;;12.80;99.90;;;;;;4952237;29;20239;-68
2023/10/31 16:26:26;;;;;;;5.33;4.83;;;12.80;99.90;;;;;;4952216;28;20215;-68
2023/10/31 16:28:54;;;;;;;5.90;4.57;;;12.70;99.90;;;;;;4952179;29;20242;-62
2023/10/31 16:31:25;;;;;;;4.10;3.80;;;12.70;99.90;;;;;;4954648;28;20564;-68
2023/10/31 16:33:53;;;;;;;5.97;3.30;;;12.80;99.90;;;;;;4971231;28;20207;-69
2023/10/31 16:36:23;;;;;;;5.23;4.57;;;12.70;99.90;;;;;;4970737;28;20204;-69
2023/10/31 16:38:51;;;;;;;4.30;3.90;;;12.70;99.90;;;;;;4971437;28;20608;-66
2023/10/31 16:41:19;;;;;;;4.63;3.73;;;12.60;99.90;;;;;;4971119;28;20222;-70
2023/10/31 16:43:48;;;;;;;4.00;3.60;;;12.60;99.90;;;;;;4971088;28;20259;-68
2023/10/31 16:46:16;;;;;;;4.23;3.77;;;12.60;99.90;;;;;;4971376;28;20219;-67
2023/10/31 16:48:45;;;;;;;4.37;3.80;;;12.60;99.90;;;;;;4971040;28;20194;-65
2023/10/31 16:51:17;;;;;;;5.93;4.50;;;12.40;99.90;;;;;;4970790;28;20201;-69
2023/10/31 16:53:47;;;;;;;3.93;3.30;;;12.40;99.90;;;;;;4971155;28;20292;-69
2023/10/31 16:56:16;;;;;;;4.27;3.00;;;12.30;99.90;;;;;;4971118;28;20221;-69
2023/10/31 16:58:45;;;;;;;4.67;3.80;;;12.40;99.90;;;;;;4970864;28;20259;-69
2023/10/31 17:01:14;;;;;;;7.00;4.73;;;12.40;99.90;;;;;;4970708;28;20203;-70
2023/10/31 17:03:42;;;;;;;4.30;3.70;;;12.50;99.90;;;;;;4970738;28;20204;-70
2023/10/31 17:06:11;;;;;;;4.63;3.90;;;12.50;99.90;;;;;;4970001;28;20813;-67
2023/10/31 17:08:41;;;;;;;4.50;3.50;;;12.40;99.90;;;;;;4970811;28;20208;-69
2023/10/31 17:11:10;;;;;;;3.73;3.27;;;12.40;99.90;;;;;;4970590;28;20208;-70
2023/10/31 17:13:39;;;;;;;5.13;3.70;;;12.40;99.90;;;;;;4970491;28;20201;-68
2023/10/31 17:16:08;;;;;;;4.00;2.80;;;12.40;99.90;;;;;;4970555;28;20197;-69
2023/10/31 17:18:36;;;;;;;3.70;3.00;;;12.40;99.90;;;;;;4970724;28;20204;-70
2023/10/31 17:21:05;;;;;;;3.70;2.93;;;12.50;99.90;;;;;;4969885;28;20212;-69
2023/10/31 17:23:34;;;;;;;3.53;3.00;;;12.50;99.90;;;;;;4970374;28;20311;-69
2023/10/31 17:26:04;;;;;;;6.53;2.90;;;12.50;99.90;;;;;;4970448;28;20655;-70
2023/10/31 17:28:38;;;;;;;3.70;2.50;;;12.50;99.90;;;;;;4970303;28;20202;-67
2023/10/31 17:31:07;;;;;;;3.73;2.90;;;12.40;99.90;;;;;;4970089;28;20582;-70
2023/10/31 17:33:36;;;;;;;5.33;3.73;;;12.40;99.90;;;;;;4931349;29;20770;-72
2023/10/31 17:36:05;;;;;;;3.50;3.20;;;12.40;99.90;;;;;;4931049;29;20203;-70
2023/10/31 17:38:33;;;;;;;3.83;2.20;;;12.40;99.90;;;;;;4931651;29;20226;-69
2023/10/31 17:41:02;;;;;;;3.50;2.60;;;12.40;99.90;;;;;;4931487;29;20298;-70
2023/10/31 17:43:31;;;;;;;4.33;3.40;;;12.30;99.90;;;;;;4931337;29;20226;-71
2023/10/31 17:46:00;;;;;;;3.73;3.43;;;12.30;99.90;;;;;;4931391;28;20277;-68
2023/10/31 17:48:29;;;;;;;3.53;3.23;;;12.30;99.90;;;;;;4930769;29;20211;-70
2023/10/31 17:50:58;;;;;;;3.97;2.93;;;12.30;99.90;;;;;;4936503;28;20211;-66
2023/10/31 17:53:26;;;;;;;2.87;2.67;;;12.20;99.90;;;;;;4969840;28;20196;-72
2023/10/31 17:55:54;;;;;;;3.67;3.30;;;12.20;99.90;;;;;;4969548;28;20670;-67
2023/10/31 17:58:23;;;;;;;3.20;2.90;;;12.30;99.90;;;;;;4970007;28;20196;-69
2023/10/31 18:00:51;;;;;;;2.83;2.23;;;12.30;99.90;;;;;;4970187;28;20210;-68
2023/10/31 18:03:21;;;;;;;2.77;2.57;;;12.30;99.90;;;;;;4969161;28;20579;-67
2023/10/31 18:05:50;;;;;;;4.50;2.87;;;12.30;99.90;;;;;;4969583;28;20227;-68
2023/10/31 18:08:18;;;;;;;3.17;2.80;;;12.20;99.90;;;;;;4969387;28;20679;-69
2023/10/31 18:10:46;;;;;;;3.47;2.50;;;12.20;99.90;;;;;;5022827;28;20628;-68
2023/10/31 18:13:15;;;;;;;3.23;2.83;;;12.20;99.90;;;;;;5031096;28;20572;-69
2023/10/31 18:15:43;;;;;;;3.33;3.03;;;12.30;99.90;;;;;;5030696;28;20278;-71
2023/10/31 18:18:11;;;;;;;2.87;2.33;;;12.30;99.90;;;;;;5030151;28;20198;-67
2023/10/31 18:20:41;;;;;;;5.27;2.50;;;12.30;99.90;;;;;;5030660;28;20273;-65
2023/10/31 18:23:09;;;;;;;3.10;2.80;;;12.30;99.90;;;;;;5030194;28;20681;-65
2023/10/31 18:25:38;;;;;;;5.57;2.90;;;12.20;99.90;;;;;;5030494;28;20222;-68
2023/10/31 18:28:06;;;;;;;3.20;2.90;;;12.30;99.90;;;;;;5030813;28;20198;-67
2023/10/31 18:30:34;;;;;;;3.60;3.30;;;12.30;99.90;;;;;;5030551;28;20214;-70
2023/10/31 18:33:05;;;;;;;4.87;3.50;;;12.30;99.90;;;;;;5029079;28;20214;-70
2023/10/31 18:35:33;;;;;;;5.53;4.50;;;12.00;99.90;;;;;;5030236;28;20609;-70
2023/10/31 18:38:03;;;;;;;5.63;4.20;;;12.10;99.90;;;;;;5029629;28;20619;-67
2023/10/31 18:40:32;;;;;;;5.90;4.33;;;12.00;99.90;;;;;;5029444;28;20708;-69
2023/10/31 18:43:01;;;;;;;10.97;6.27;;;11.90;99.90;;;;;;5030061;28;20210;-70
2023/10/31 18:45:29;;;;;;;5.93;4.60;;;12.00;99.90;;;;;;5029950;28;20688;-70
2023/10/31 18:47:58;;;;;;;5.20;4.70;;;11.90;99.90;;;;;;5029468;28;20272;-69
2023/10/31 18:50:27;;;;;;;6.03;4.23;;;11.90;99.90;;;;;;5029919;28;20217;-71
2023/10/31 18:52:55;;;;;;;7.37;4.20;;;11.90;99.90;;;;;;5029736;28;20688;-71
2023/10/31 18:55:25;;;;;;;6.53;4.27;;;11.80;99.90;;;;;;5029860;28;20736;-70
2023/10/31 18:57:53;;;;;;;4.30;3.60;;;11.80;99.90;;;;;;5029967;28;20280;-68
2023/10/31 19:00:22;;;;;;;7.23;4.00;;;11.80;99.90;;;;;;5029898;28;20202;-65